createdAt,value
2018-02-18T00:00:59.252Z,37.07
2018-02-18T00:03:27.361Z,42.60
2018-02-18T00:05:55.493Z,35.23
2018-02-18T00:08:23.634Z,37.23
2018-02-18T00:10:52.452Z,36.87
2018-02-18T00:13:20.559Z,40.10
2018-02-18T00:15:50.483Z,39.17
2018-02-18T00:18:18.662Z,41.87
2018-02-18T00:20:47.539Z,41.93
2018-02-18T00:23:16.459Z,43.10
2018-02-18T00:25:45.558Z,42.67
2018-02-18T00:28:13.669Z,38.97
2018-02-18T00:30:41.878Z,47.63
2018-02-18T00:33:10.052Z,43.33
2018-02-18T00:35:38.947Z,35.53
2018-02-18T00:38:07.058Z,32.57
2018-02-18T00:40:36.410Z,35.10
2018-02-18T00:43:05.025Z,35.10
2018-02-18T00:45:33.264Z,33.90
2018-02-18T00:48:05.076Z,35.87
2018-02-18T00:51:04.893Z,37.93
2018-02-18T00:53:43.549Z,38.13
2018-02-18T00:56:15.785Z,40.77
2018-02-18T00:58:44.085Z,35.90
2018-02-18T01:01:33.937Z,36.87
2018-02-18T01:04:08.187Z,36.10
2018-02-18T01:06:42.827Z,38.63
2018-02-18T01:09:10.992Z,40.17
2018-02-18T01:11:39.101Z,33.23
2018-02-18T01:14:09.203Z,39.97
2018-02-18T01:16:38.084Z,30.60
2018-02-18T01:19:07.004Z,31.67
2018-02-18T01:21:35.108Z,30.90
2018-02-18T01:24:03.264Z,31.47
2018-02-18T01:26:31.396Z,28.77
2018-02-18T01:28:59.510Z,38.80
2018-02-18T01:31:27.608Z,31.60
2018-02-18T01:33:55.722Z,39.10
2018-02-18T01:36:23.933Z,43.00
2018-02-18T01:38:52.134Z,36.93
2018-02-18T01:41:20.375Z,36.73
2018-02-18T01:43:48.469Z,33.03
2018-02-18T01:46:17.608Z,33.57
2018-02-18T01:48:45.788Z,40.70
2018-02-18T01:51:14.696Z,36.27
2018-02-18T01:53:43.793Z,64.73
2018-02-18T01:56:11.962Z,40.00
2018-02-18T01:58:40.869Z,31.23
2018-02-18T02:01:08.991Z,30.20
2018-02-18T02:03:37.113Z,31.60
2018-02-18T02:06:06.140Z,29.47
2018-02-18T02:08:34.382Z,28.10
2018-02-18T02:11:02.538Z,34.70
2018-02-18T02:13:30.692Z,27.50
2018-02-18T02:15:59.817Z,34.60
2018-02-18T02:18:27.923Z,30.10
2018-02-18T02:20:56.144Z,28.63
2018-02-18T02:23:25.063Z,30.17
2018-02-18T02:25:53.165Z,30.37
2018-02-18T02:28:21.271Z,32.47
2018-02-18T02:30:49.495Z,26.97
2018-02-18T02:33:17.601Z,29.53
2018-02-18T02:35:45.848Z,33.07
2018-02-18T02:38:14.938Z,27.80
2018-02-18T02:40:43.084Z,29.10
2018-02-18T02:43:11.962Z,36.50
2018-02-18T02:45:40.083Z,24.13
2018-02-18T02:48:09.155Z,35.50
2018-02-18T02:50:40.925Z,30.33
2018-02-18T02:53:09.037Z,35.30
2018-02-18T02:55:37.250Z,29.10
2018-02-18T02:58:06.144Z,25.00
2018-02-18T03:00:35.027Z,31.97
2018-02-18T03:03:03.930Z,27.80
2018-02-18T03:05:32.915Z,27.53
2018-02-18T03:08:01.842Z,29.43
2018-02-18T03:10:30.683Z,33.63
2018-02-18T03:12:58.793Z,25.77
2018-02-18T03:15:28.911Z,30.13
2018-02-18T03:17:57.008Z,35.13
2018-02-18T03:20:25.243Z,39.80
2018-02-18T03:22:54.117Z,34.90
2018-02-18T03:25:24.031Z,33.40
2018-02-18T03:27:52.146Z,38.10
2018-02-18T03:30:21.304Z,34.30
2018-02-18T03:32:50.211Z,40.77
2018-02-18T03:35:18.317Z,43.10
2018-02-18T03:37:46.432Z,28.27
2018-02-18T03:40:14.642Z,36.10
2018-02-18T03:42:42.769Z,34.97
2018-02-18T03:45:10.959Z,31.37
2018-02-18T03:47:39.856Z,42.00
2018-02-18T03:50:08.776Z,42.40
2018-02-18T03:52:36.886Z,39.53
2018-02-18T03:55:06.952Z,44.40
2018-02-18T03:57:35.811Z,37.30
2018-02-18T04:00:03.899Z,31.63
2018-02-18T04:02:32.789Z,38.60
2018-02-18T04:05:01.696Z,40.97
2018-02-18T04:07:30.598Z,36.50
2018-02-18T04:10:00.725Z,45.87
2018-02-18T04:12:29.820Z,35.70
2018-02-18T04:14:59.904Z,38.00
2018-02-18T04:17:28.831Z,34.33
2018-02-18T04:19:56.923Z,34.50
2018-02-18T04:22:26.292Z,34.87
2018-02-18T04:24:55.192Z,39.27
2018-02-18T04:27:23.301Z,30.00
2018-02-18T04:29:51.533Z,36.47
2018-02-18T04:32:19.644Z,34.83
2018-02-18T04:34:47.724Z,35.37
2018-02-18T04:37:15.947Z,43.77
2018-02-18T04:39:44.827Z,38.60
2018-02-18T04:42:13.707Z,46.23
2018-02-18T04:44:41.828Z,40.83
2018-02-18T04:47:10.893Z,35.40
2018-02-18T04:49:39.068Z,35.33
2018-02-18T04:52:07.967Z,37.10
2018-02-18T04:54:37.066Z,40.10
2018-02-18T04:57:05.152Z,34.17
2018-02-18T04:59:34.240Z,43.10
2018-02-18T05:02:02.351Z,38.60
2018-02-18T05:04:30.557Z,40.53
2018-02-18T05:06:58.663Z,41.30
2018-02-18T05:09:26.759Z,39.40
2018-02-18T05:11:56.877Z,43.87
2018-02-18T05:14:25.015Z,33.60
2018-02-18T05:16:53.910Z,39.57
2018-02-18T05:19:23.012Z,44.90
2018-02-18T05:21:51.108Z,38.73
2018-02-18T05:24:21.163Z,33.27
2018-02-18T05:26:49.293Z,48.43
2018-02-18T05:29:18.338Z,36.57
2018-02-18T05:31:47.257Z,40.97
2018-02-18T05:34:17.360Z,53.23
2018-02-18T05:36:46.269Z,33.33
2018-02-18T05:39:15.343Z,39.33
2018-02-18T05:41:43.507Z,43.17
2018-02-18T05:44:11.603Z,34.90
2018-02-18T05:46:39.710Z,39.10
2018-02-18T05:49:07.805Z,45.20
2018-02-18T05:51:36.065Z,41.90
2018-02-18T05:54:04.155Z,40.27
2018-02-18T05:56:32.734Z,46.27
2018-02-18T05:59:00.929Z,42.40
2018-02-18T06:01:30.084Z,36.53
2018-02-18T06:03:59.126Z,45.93
2018-02-18T06:06:27.314Z,41.37
2018-02-18T06:08:56.219Z,46.43
2018-02-18T06:11:24.313Z,50.57
2018-02-18T06:13:52.413Z,37.50
2018-02-18T06:16:20.623Z,41.23
2018-02-18T06:18:49.483Z,51.97
2018-02-18T06:21:17.625Z,48.00
2018-02-18T06:23:45.720Z,39.63
2018-02-18T06:26:13.919Z,46.63
2018-02-18T06:28:43.039Z,54.33
2018-02-18T06:31:11.149Z,43.03
2018-02-18T06:33:39.263Z,48.20
2018-02-18T06:36:07.383Z,50.20
2018-02-18T06:38:35.479Z,43.77
2018-02-18T06:41:03.784Z,50.60
2018-02-18T06:43:32.001Z,45.03
2018-02-18T06:46:02.083Z,49.47
2018-02-18T06:48:30.991Z,48.80
2018-02-18T06:51:00.084Z,49.67
2018-02-18T06:53:28.198Z,55.57
2018-02-18T06:55:58.265Z,48.63
2018-02-18T06:58:26.445Z,41.33
2018-02-18T07:00:55.336Z,47.70
2018-02-18T07:03:24.233Z,50.57
2018-02-18T07:05:52.322Z,48.80
2018-02-18T07:08:23.856Z,50.90
2018-02-18T07:10:52.745Z,48.00
2018-02-18T07:13:21.631Z,51.30
2018-02-18T07:15:50.517Z,54.90
2018-02-18T07:18:19.460Z,49.40
2018-02-18T07:20:47.672Z,43.23
2018-02-18T07:23:15.781Z,47.33
2018-02-18T07:25:43.956Z,46.10
2018-02-18T07:28:13.028Z,51.03
2018-02-18T07:30:41.928Z,38.63
2018-02-18T07:33:10.794Z,48.40
2018-02-18T07:35:40.943Z,55.57
2018-02-18T07:38:09.873Z,48.40
2018-02-18T07:40:38.099Z,49.33
2018-02-18T07:43:07.007Z,53.13
2018-02-18T07:45:35.089Z,46.27
2018-02-18T07:48:03.199Z,47.53
2018-02-18T07:50:31.399Z,50.87
2018-02-18T07:53:00.300Z,49.30
2018-02-18T07:55:29.171Z,46.83
2018-02-18T07:57:57.256Z,51.80
2018-02-18T08:00:26.172Z,51.83
2018-02-18T08:02:56.276Z,48.10
2018-02-18T08:05:25.146Z,51.13
2018-02-18T08:07:53.260Z,50.50
2018-02-18T08:10:21.364Z,51.43
2018-02-18T08:12:49.472Z,46.90
2018-02-18T08:15:18.666Z,50.97
2018-02-18T08:17:50.282Z,51.43
2018-02-18T08:20:18.337Z,55.00
2018-02-18T08:22:46.436Z,57.43
2018-02-18T08:25:14.655Z,49.60
2018-02-18T08:27:43.552Z,56.53
2018-02-18T08:30:11.734Z,66.50
2018-02-18T08:32:39.817Z,48.97
2018-02-18T08:35:08.310Z,57.57
2018-02-18T08:37:36.583Z,48.37
2018-02-18T08:40:04.672Z,76.70
2018-02-18T08:42:32.789Z,65.20
2018-02-18T08:45:02.053Z,53.60
2018-02-18T08:47:30.308Z,59.47
2018-02-18T08:49:58.655Z,60.20
2018-02-18T08:52:27.700Z,68.23
2018-02-18T09:12:53.569Z,61.23
2018-02-18T09:15:22.026Z,60.03
2018-02-18T09:17:50.540Z,62.27
2018-02-18T09:20:21.149Z,63.80
2018-02-18T09:22:49.404Z,58.77
2018-02-18T09:25:18.866Z,71.33
2018-02-18T09:27:48.453Z,57.57
2018-02-18T09:30:16.908Z,51.30
2018-02-18T09:32:45.095Z,67.33
2018-02-18T09:35:13.177Z,57.70
2018-02-18T09:37:41.368Z,56.67
2018-02-18T09:40:10.268Z,51.43
2018-02-18T09:42:39.498Z,57.93
2018-02-18T09:45:08.604Z,49.90
2018-02-18T09:47:36.705Z,61.57
2018-02-18T09:50:05.295Z,51.90
2018-02-18T09:52:33.389Z,54.97
2018-02-18T09:55:02.279Z,72.17
2018-02-18T09:57:30.442Z,50.53
2018-02-18T09:59:59.338Z,50.87
2018-02-18T10:02:28.239Z,49.13
2018-02-18T10:04:57.101Z,57.20
2018-02-18T10:07:29.445Z,46.93
2018-02-18T10:09:58.656Z,53.60
2018-02-18T10:12:26.744Z,46.50
2018-02-18T10:14:54.958Z,50.50
2018-02-18T10:17:24.051Z,43.70
2018-02-18T10:19:52.172Z,47.23
2018-02-18T10:22:20.380Z,44.03
2018-02-18T10:24:49.272Z,42.10
2018-02-18T10:27:19.456Z,44.50
2018-02-18T10:29:47.972Z,47.10
2018-02-18T10:32:16.164Z,44.10
2018-02-18T10:34:44.315Z,39.23
2018-02-18T10:37:12.492Z,47.20
2018-02-18T10:39:41.266Z,46.80
2018-02-18T10:42:10.510Z,56.67
2018-02-18T10:44:38.649Z,37.80
2018-02-18T10:47:09.624Z,54.90
2018-02-18T10:49:37.698Z,45.43
2018-02-18T10:52:06.140Z,40.67
2018-02-18T10:54:34.332Z,38.10
2018-02-18T10:57:03.254Z,44.43
2018-02-18T10:59:31.418Z,34.20
2018-02-18T11:01:59.597Z,44.80
2018-02-18T11:04:27.746Z,43.30
2018-02-18T11:06:55.916Z,41.20
2018-02-18T11:09:24.900Z,39.90
2018-02-18T11:11:54.786Z,44.97
2018-02-18T11:14:22.891Z,47.00
2018-02-18T11:16:53.114Z,45.63
2018-02-18T11:19:22.000Z,41.33
2018-02-18T11:21:51.037Z,34.87
2018-02-18T11:24:19.537Z,42.87
2018-02-18T11:26:47.776Z,35.23
2018-02-18T11:36:02.170Z,37.70
2018-02-18T11:38:30.376Z,34.43
2018-02-18T11:40:58.721Z,38.10
2018-02-18T11:43:27.939Z,46.53
2018-02-18T11:45:57.145Z,36.60
2018-02-18T11:48:29.908Z,30.37
2018-02-18T11:50:58.026Z,31.20
2018-02-18T11:53:27.166Z,38.63
2018-02-18T11:55:55.333Z,40.63
2018-02-18T11:58:23.448Z,32.07
2018-02-18T12:00:51.555Z,36.70
2018-02-18T12:03:19.770Z,37.40
2018-02-18T12:05:59.351Z,29.47
2018-02-18T12:08:27.452Z,29.80
2018-02-18T12:10:55.539Z,40.97
2018-02-18T12:13:23.650Z,29.83
2018-02-18T12:15:51.719Z,25.83
2018-02-18T12:18:19.821Z,31.27
2018-02-18T12:20:47.915Z,29.57
2018-02-18T12:23:16.011Z,26.93
2018-02-18T12:25:44.121Z,33.37
2018-02-18T12:28:12.227Z,27.03
2018-02-18T12:30:40.338Z,29.13
2018-02-18T12:33:08.436Z,32.13
2018-02-18T12:35:36.581Z,35.20
2018-02-18T12:38:04.672Z,31.07
2018-02-18T12:40:32.785Z,33.10
2018-02-18T12:43:00.876Z,25.73
2018-02-18T12:45:29.029Z,31.43
2018-02-18T12:47:57.123Z,38.00
2018-02-18T12:50:25.229Z,28.10
2018-02-18T12:52:53.361Z,39.73
2018-02-18T12:55:21.453Z,33.23
2018-02-18T12:57:50.336Z,29.60
2018-02-18T13:00:18.428Z,37.70
2018-02-18T13:02:46.523Z,33.47
2018-02-18T13:05:14.640Z,27.27
2018-02-18T13:07:42.722Z,28.97
2018-02-18T13:10:11.761Z,28.17
2018-02-18T13:12:39.851Z,33.63
2018-02-18T13:15:08.875Z,33.53
2018-02-18T13:17:37.739Z,27.27
2018-02-18T13:20:06.701Z,27.83
2018-02-18T13:22:35.776Z,45.60
2018-02-18T13:25:03.892Z,40.70
2018-02-18T13:27:33.975Z,32.47
2018-02-18T13:30:02.086Z,24.80
2018-02-18T13:32:33.458Z,27.43
2018-02-18T13:35:01.511Z,32.00
2018-02-18T13:37:29.628Z,25.43
2018-02-18T13:39:57.721Z,26.27
2018-02-18T13:42:25.835Z,26.10
2018-02-18T13:44:53.932Z,41.27
2018-02-18T13:47:22.804Z,39.27
2018-02-18T13:49:50.963Z,32.20
2018-02-18T13:52:19.068Z,23.43
2018-02-18T13:54:47.196Z,21.00
2018-02-18T13:57:15.290Z,27.10
2018-02-18T13:59:43.411Z,23.07
2018-02-18T14:02:11.512Z,22.53
2018-02-18T14:04:39.621Z,28.63
2018-02-18T14:07:07.751Z,27.17
2018-02-18T14:09:35.832Z,19.60
2018-02-18T14:12:03.941Z,26.50
2018-02-18T14:14:32.049Z,32.23
2018-02-18T14:17:00.164Z,19.23
2018-02-18T14:19:28.290Z,21.50
2018-02-18T14:21:56.411Z,23.07
2018-02-18T14:24:24.504Z,51.90
2018-02-18T14:26:52.648Z,25.37
2018-02-18T14:29:20.752Z,23.93
2018-02-18T14:31:48.857Z,26.77
2018-02-18T14:34:16.956Z,26.70
2018-02-18T14:36:45.117Z,25.83
2018-02-18T14:39:13.167Z,23.10
2018-02-18T14:45:08.702Z,38.67
2018-02-18T14:47:54.827Z,31.10
2018-02-18T14:50:40.588Z,32.23
2018-02-18T14:53:26.440Z,19.87
2018-02-18T14:56:12.120Z,29.33
2018-02-18T14:58:40.240Z,26.87
2018-02-18T15:01:08.389Z,31.17
2018-02-18T15:03:36.475Z,28.63
2018-02-18T16:19:29.100Z,24.47
2018-02-18T16:21:57.981Z,36.37
2018-02-18T16:24:26.091Z,25.57
2018-02-18T16:26:54.196Z,30.17
2018-02-18T16:29:22.311Z,25.10
2018-02-18T16:31:50.419Z,30.83
2018-02-18T16:34:18.517Z,25.43
2018-02-18T16:36:46.621Z,22.63
2018-02-18T16:39:14.724Z,29.57
2018-02-18T16:41:43.385Z,32.57
2018-02-18T16:44:11.500Z,27.57
2018-02-18T16:46:39.601Z,25.10
2018-02-18T16:49:08.467Z,30.20
2018-02-18T16:51:36.572Z,31.30
2018-02-18T16:54:04.680Z,25.33
2018-02-18T16:56:33.558Z,29.20
2018-02-18T16:59:02.437Z,29.47
2018-02-18T17:01:30.540Z,32.67
2018-02-18T17:03:58.685Z,53.27
2018-02-18T17:06:27.582Z,81.90
2018-02-18T17:08:56.462Z,45.83
2018-02-18T17:11:24.546Z,28.50
2018-02-18T17:13:53.406Z,26.23
2018-02-18T17:16:21.508Z,26.90
2018-02-18T17:18:50.358Z,29.13
2018-02-18T17:21:18.482Z,21.53
2018-02-18T17:23:47.346Z,24.93
2018-02-18T17:26:15.493Z,26.90
2018-02-18T17:28:43.573Z,25.40
2018-02-18T17:31:11.685Z,25.90
2018-02-18T17:33:39.781Z,23.97
2018-02-18T17:36:07.937Z,29.13
2018-02-18T17:38:37.336Z,25.33
2018-02-18T17:41:06.211Z,24.97
2018-02-18T17:43:34.327Z,32.13
2018-02-18T17:46:02.452Z,28.60
2018-02-18T17:48:30.534Z,50.80
2018-02-18T17:50:58.617Z,31.13
2018-02-18T17:53:27.508Z,28.63
2018-02-18T17:56:03.190Z,30.90
2018-02-18T17:58:31.316Z,30.53
2018-02-18T18:00:59.424Z,35.20
2018-02-18T18:03:27.678Z,33.37
2018-02-18T18:05:56.572Z,31.33
2018-02-18T18:08:25.475Z,36.63
2018-02-18T18:10:53.588Z,34.70
2018-02-18T18:13:21.681Z,40.17
2018-02-18T18:15:49.798Z,36.67
2018-02-18T18:18:17.913Z,33.73
2018-02-18T18:20:46.012Z,32.07
2018-02-18T18:23:14.885Z,33.37
2018-02-18T18:25:42.989Z,29.40
2018-02-18T18:28:11.837Z,32.50
2018-02-18T18:30:39.969Z,29.77
2018-02-18T18:33:08.054Z,28.30
2018-02-18T18:35:36.184Z,30.70
2018-02-18T18:38:05.062Z,30.13
2018-02-18T18:40:33.176Z,38.73
2018-02-18T18:43:01.274Z,52.87
2018-02-18T18:45:29.366Z,47.47
2018-02-18T18:47:57.489Z,33.60
2018-02-18T18:50:25.578Z,26.77
2018-02-18T18:52:54.448Z,30.23
2018-02-18T18:55:22.551Z,38.77
2018-02-18T18:57:50.701Z,26.93
2018-02-18T19:00:18.834Z,35.33
2018-02-18T19:02:46.890Z,39.40
2018-02-18T19:05:14.990Z,48.17
2018-02-18T19:07:43.856Z,46.53
2018-02-18T19:10:11.968Z,41.63
2018-02-18T19:12:40.856Z,40.37
2018-02-18T19:15:09.737Z,33.27
2018-02-18T19:17:38.599Z,36.40
2018-02-18T19:20:06.738Z,41.70
2018-02-18T19:22:34.817Z,51.33
2018-02-18T19:25:02.928Z,51.60
2018-02-18T19:27:31.029Z,69.60
2018-02-18T19:29:59.912Z,65.47
2018-02-18T19:32:28.800Z,54.40
2018-02-18T19:34:57.668Z,59.43
2018-02-18T19:37:25.786Z,77.57
2018-02-18T19:39:53.938Z,76.10
2018-02-18T19:42:22.040Z,64.53
2018-02-18T19:44:50.174Z,62.10
2018-02-18T19:47:19.060Z,54.20
2018-02-18T19:49:47.186Z,93.10
2018-02-18T19:52:15.281Z,71.60
2018-02-18T19:54:43.455Z,61.90
2018-02-18T19:57:11.669Z,48.63
2018-02-18T19:59:40.551Z,46.33
2018-02-18T20:02:08.657Z,45.97
2018-02-18T20:04:36.766Z,50.10
2018-02-18T20:07:04.865Z,49.13
2018-02-18T20:09:33.044Z,51.57
2018-02-18T20:12:01.937Z,45.23
2018-02-18T20:14:30.102Z,43.63
2018-02-18T20:16:58.200Z,42.00
2018-02-18T20:19:27.071Z,39.83
2018-02-18T20:21:55.418Z,39.77
2018-02-18T20:24:23.577Z,46.83
2018-02-18T20:26:51.823Z,40.90
2018-02-18T20:29:20.124Z,57.37
2018-02-18T20:31:48.248Z,49.53
2018-02-18T20:34:16.562Z,52.47
2018-02-18T20:36:44.711Z,44.17
2018-02-18T20:39:15.784Z,46.87
2018-02-18T20:41:43.987Z,44.80
2018-02-18T20:44:12.173Z,73.73
2018-02-18T20:46:40.291Z,80.20
2018-02-18T20:49:08.528Z,47.57
2018-02-18T20:51:37.514Z,46.43
2018-02-18T20:54:05.617Z,43.90
2018-02-18T20:56:33.728Z,53.17
2018-02-18T20:59:01.829Z,48.80
2018-02-18T21:01:29.968Z,49.00
2018-02-18T21:03:58.060Z,47.93
2018-02-18T21:06:26.176Z,44.37
2018-02-18T21:08:55.060Z,49.00
2018-02-18T21:11:23.147Z,54.27
2018-02-18T21:13:52.035Z,40.53
2018-02-18T21:16:20.909Z,51.53
2018-02-18T21:18:49.052Z,40.13
2018-02-18T21:21:17.136Z,38.80
2018-02-18T21:23:45.249Z,50.37
2018-02-18T21:26:13.427Z,50.57
2018-02-18T21:28:41.480Z,68.53
2018-02-18T21:31:09.588Z,46.73
2018-02-18T21:33:37.670Z,50.30
2018-02-18T21:36:05.751Z,47.90
2018-02-18T21:38:33.864Z,43.97
2018-02-18T21:41:01.958Z,44.67
2018-02-18T21:43:30.062Z,51.43
2018-02-18T21:45:58.157Z,51.37
2018-02-18T21:48:26.256Z,48.13
2018-02-18T21:50:55.125Z,47.40
2018-02-18T21:53:23.219Z,55.60
2018-02-18T21:55:52.076Z,47.03
2018-02-18T21:58:20.194Z,49.93
2018-02-18T22:00:49.188Z,43.93
2018-02-18T22:03:18.054Z,51.17
2018-02-18T22:05:46.152Z,50.83
2018-02-18T22:08:14.253Z,44.47
2018-02-18T22:10:42.340Z,49.30
2018-02-18T22:13:10.457Z,47.20
2018-02-18T22:15:39.332Z,45.60
2018-02-18T22:18:07.451Z,49.37
2018-02-18T22:20:36.524Z,59.67
2018-02-18T22:23:05.419Z,46.03
2018-02-18T22:25:33.564Z,41.23
2018-02-18T22:28:01.730Z,49.07
2018-02-18T22:30:29.859Z,50.07
2018-02-18T22:32:57.967Z,42.47
2018-02-18T22:35:26.073Z,43.30
2018-02-18T22:37:54.172Z,53.40
2018-02-18T22:40:22.265Z,46.17
2018-02-18T22:42:50.363Z,49.37
2018-02-18T22:45:18.480Z,52.50
2018-02-18T22:47:46.607Z,46.03
2018-02-18T22:50:14.712Z,53.37
2018-02-18T22:52:42.847Z,48.57
2018-02-18T22:55:10.924Z,43.17
2018-02-18T22:57:39.013Z,49.27
2018-02-18T23:00:07.304Z,54.00
2018-02-18T23:02:36.640Z,48.00
2018-02-18T23:05:10.422Z,47.97
2018-02-18T23:07:39.345Z,49.27
2018-02-18T23:10:07.916Z,53.67
2018-02-18T23:12:36.437Z,51.70
2018-02-18T23:15:04.580Z,54.40
2018-02-18T23:17:32.841Z,61.80
2018-02-18T23:20:00.955Z,72.77
2018-02-18T23:22:29.203Z,64.20
2018-02-18T23:24:58.317Z,53.97
2018-02-18T23:27:27.535Z,48.23
2018-02-18T23:29:56.892Z,56.23
2018-02-18T23:32:25.079Z,56.03
2018-02-18T23:34:53.358Z,49.83
2018-02-18T23:37:22.276Z,54.00
2018-02-18T23:39:50.383Z,50.43
2018-02-18T23:42:19.234Z,57.70
2018-02-18T23:44:47.320Z,56.23
2018-02-18T23:47:15.425Z,52.20
2018-02-18T23:49:44.284Z,54.50
2018-02-18T23:52:12.388Z,52.60
2018-02-18T23:54:40.496Z,48.27
2018-02-18T23:57:08.599Z,59.13
2018-02-18T23:59:36.692Z,55.50
